Pakpattan Weather



Pakpattan's Current Weather

Temprature 20.88o clear sky

clear sky

Rain: 0 %

Min Temprature20.88o
Max Temprature20.88o
Humidity31
Wind Speed1.37 m/h
Sun Rise05:45:46
Sun Set18:29:45
Current Time: 09-Apr-2020 02:56:27
Lat/Lon: 30.34, 73.39




Pakpattan's Geo Location



Pakpattan's Weather Forecast

Time Overall Temp Min Temp Max Temp Humidity Wind Speed Rain
09-Apr-2020 (Thu)
05:00:00 clear sky 20.240 20.240 20.240 31 1.33 m/h 0 %
08:00:00 clear sky 25.460 25.460 25.460 24 1.97 m/h 0 %
11:00:00 scattered clouds 32.190 32.190 32.190 16 1.69 m/h 0 %
14:00:00 overcast clouds 34.810 34.810 34.810 13 2.8 m/h 0 %
17:00:00 overcast clouds 34.340 34.340 34.340 14 2.74 m/h 0 %
20:00:00 overcast clouds 28.100 28.100 28.100 20 1.31 m/h 0 %
23:00:00 overcast clouds 27.260 27.260 27.260 22 2.13 m/h 0 %
10-Apr-2020 (Fri)
02:00:00 light rain 25.150 25.150 25.150 27 3.08 m/h 21 %
05:00:00 broken clouds 22.500 22.500 22.500 31 2.81 m/h 0 %
08:00:00 clear sky 27.530 27.530 27.530 24 2.99 m/h 0 %
11:00:00 clear sky 34.960 34.960 34.960 13 2.68 m/h 0 %
14:00:00 clear sky 37.820 37.820 37.820 11 2.67 m/h 0 %
17:00:00 clear sky 36.570 36.570 36.570 12 5.15 m/h 0 %
20:00:00 clear sky 29.230 29.230 29.230 20 3.39 m/h 0 %
23:00:00 clear sky 26.100 26.100 26.100 29 3.42 m/h 0 %
11-Apr-2020 (Sat)
02:00:00 clear sky 24.200 24.200 24.200 35 3.37 m/h 0 %
05:00:00 few clouds 22.960 22.960 22.960 39 3.21 m/h 0 %
08:00:00 scattered clouds 27.720 27.720 27.720 31 3.61 m/h 0 %
11:00:00 scattered clouds 35.290 35.290 35.290 18 3.86 m/h 0 %
14:00:00 clear sky 37.660 37.660 37.660 13 3.26 m/h 0 %
17:00:00 scattered clouds 37.310 37.310 37.310 12 4.27 m/h 0 %
20:00:00 broken clouds 30.540 30.540 30.540 18 3.02 m/h 0 %
23:00:00 broken clouds 27.730 27.730 27.730 22 3.19 m/h 0 %
12-Apr-2020 (Sun)
02:00:00 scattered clouds 26.010 26.010 26.010 26 2.58 m/h 0 %
05:00:00 scattered clouds 24.660 24.660 24.660 29 2.03 m/h 0 %
08:00:00 broken clouds 29.590 29.590 29.590 23 0.78 m/h 0 %
11:00:00 broken clouds 36.380 36.380 36.380 16 2.21 m/h 0 %
14:00:00 overcast clouds 38.920 38.920 38.920 13 4.28 m/h 0 %
17:00:00 overcast clouds 38.050 38.050 38.050 13 4.71 m/h 0 %
20:00:00 scattered clouds 31.170 31.170 31.170 20 2.93 m/h 0 %
23:00:00 few clouds 28.820 28.820 28.820 24 2.14 m/h 0 %
13-Apr-2020 (Mon)
02:00:00 scattered clouds 26.930 26.930 26.930 26 1.91 m/h 0 %
05:00:00 broken clouds 25.680 25.680 25.680 28 1.46 m/h 0 %
08:00:00 broken clouds 31.060 31.060 31.060 21 0.76 m/h 0 %
11:00:00 broken clouds 38.110 38.110 38.110 13 2.21 m/h 0 %
14:00:00 scattered clouds 41.260 41.260 41.260 10 3.96 m/h 0 %
17:00:00 few clouds 40.700 40.700 40.700 9 3.38 m/h 0 %
20:00:00 clear sky 33.090 33.090 33.090 15 0.42 m/h 0 %
23:00:00 clear sky 30.750 30.750 30.750 17 1.82 m/h 0 %
14-Apr-2020 (Tue)
02:00:00 scattered clouds 29.540 29.540 29.540 18 2.58 m/h 0 %

Famous Cities (61)